createdAt,value
2019-01-19T00:01:39.126Z,101659.80
2019-01-19T00:07:20.328Z,101653.08
2019-01-19T00:12:37.529Z,101660.13
2019-01-19T00:18:21.746Z,101662.12
2019-01-19T00:24:17.138Z,101658.43
2019-01-19T00:30:00.747Z,101659.47
2019-01-19T00:35:43.228Z,101662.64
2019-01-19T00:41:22.685Z,101659.28
2019-01-19T00:46:54.729Z,101653.59
2019-01-19T00:52:37.746Z,101655.77
2019-01-19T00:58:26.475Z,101657.30
2019-01-19T01:04:01.228Z,101658.48
2019-01-19T01:09:47.850Z,101659.20
2019-01-19T01:15:37.728Z,101655.38
2019-01-19T01:21:06.883Z,101659.33
2019-01-19T01:27:03.999Z,101656.31
2019-01-19T01:32:51.772Z,101660.73
2019-01-19T01:38:07.651Z,101662.64
2019-01-19T01:44:01.494Z,101665.66
2019-01-19T01:49:33.220Z,101658.14
2019-01-19T01:55:13.645Z,101665.87
2019-01-19T02:00:57.715Z,101661.13
2019-01-19T02:06:39.683Z,101663.62
2019-01-19T02:12:29.050Z,101656.91
2019-01-19T02:18:34.867Z,101660.41
2019-01-19T02:23:53.511Z,101655.78
2019-01-19T02:29:38.449Z,101655.50
2019-01-19T02:35:32.725Z,101652.62
2019-01-19T02:41:03.288Z,101647.69
2019-01-19T02:46:55.769Z,101656.19
2019-01-19T02:52:35.142Z,101662.89
2019-01-19T02:58:28.913Z,101654.38
2019-01-19T03:03:54.838Z,101654.46
2019-01-19T03:09:24.385Z,101650.48
2019-01-19T03:14:52.132Z,101655.11
2019-01-19T03:20:34.150Z,101652.49
2019-01-19T03:25:59.475Z,101651.17
2019-01-19T03:31:51.640Z,101652.22
2019-01-19T03:37:18.044Z,101649.38
2019-01-19T03:42:57.830Z,101657.83
2019-01-19T03:48:17.219Z,101655.97
2019-01-19T03:54:13.047Z,101658.50
2019-01-19T03:59:56.610Z,101657.16
2019-01-19T04:05:31.314Z,101658.23
2019-01-19T04:11:17.546Z,101652.30
2019-01-19T04:17:14.301Z,101647.20
2019-01-19T04:22:39.408Z,101646.87
2019-01-19T04:27:43.429Z,101647.04
2019-01-19T04:32:47.531Z,101645.14
2019-01-19T04:37:51.579Z,101645.15
2019-01-19T04:42:55.644Z,101644.27
2019-01-19T04:47:59.630Z,101641.84
2019-01-19T04:53:03.862Z,101641.46
2019-01-19T04:58:07.872Z,101642.81
2019-01-19T05:03:11.882Z,101647.44
2019-01-19T05:08:16.243Z,101655.16
2019-01-19T05:13:20.287Z,101647.64
2019-01-19T05:18:24.319Z,101653.11
2019-01-19T05:23:28.388Z,101642.84
2019-01-19T05:28:32.417Z,101653.28
2019-01-19T05:33:36.471Z,101658.27
2019-01-19T05:38:40.512Z,101658.59
2019-01-19T05:43:44.628Z,101662.06
2019-01-19T05:48:48.751Z,101666.11
2019-01-19T05:53:54.828Z,101658.89
2019-01-19T05:58:58.860Z,101662.10
2019-01-19T06:04:03.236Z,101652.98
2019-01-19T06:09:07.993Z,101656.91
2019-01-19T06:14:12.026Z,101672.15
2019-01-19T06:19:16.058Z,101667.05
2019-01-19T06:24:20.099Z,101667.02
2019-01-19T06:29:24.250Z,101667.91
2019-01-19T06:34:29.198Z,101667.55
2019-01-19T06:39:33.544Z,101668.41
2019-01-19T06:44:37.645Z,101664.24
2019-01-19T06:49:44.479Z,101665.09
2019-01-19T06:54:48.942Z,101665.55
2019-01-19T06:59:53.007Z,101670.16
2019-01-19T07:04:57.023Z,101673.91
2019-01-19T07:10:01.090Z,101681.34
2019-01-19T07:15:06.236Z,101672.08
2019-01-19T07:20:13.050Z,101673.11
2019-01-19T07:25:17.188Z,101682.45
2019-01-19T07:30:21.259Z,101681.64
2019-01-19T07:35:25.316Z,101684.73
2019-01-19T07:40:29.369Z,101692.38
2019-01-19T07:45:33.394Z,101697.97
2019-01-19T07:50:37.614Z,101696.48
2019-01-19T07:55:41.934Z,101702.80
2019-01-19T08:00:46.061Z,101708.11
2019-01-19T08:05:50.122Z,101719.16
2019-01-19T08:10:54.238Z,101717.35
2019-01-19T08:15:58.286Z,101719.69
2019-01-19T08:21:02.434Z,101724.26
2019-01-19T08:26:06.501Z,101720.87
2019-01-19T08:31:10.552Z,101716.16
2019-01-19T08:36:14.611Z,101720.28
2019-01-19T08:41:18.712Z,101719.48
2019-01-19T08:46:22.761Z,101723.05
2019-01-19T08:51:26.919Z,101727.22
2019-01-19T08:56:31.145Z,101726.20
2019-01-19T09:01:35.224Z,101726.41
2019-01-19T09:06:39.305Z,101727.50
2019-01-19T09:11:43.374Z,101731.49
2019-01-19T09:16:47.418Z,101725.66
2019-01-19T09:21:51.526Z,101724.19
2019-01-19T09:26:55.770Z,101726.73
2019-01-19T09:31:59.872Z,101724.15
2019-01-19T09:37:04.240Z,101720.72
2019-01-19T09:42:08.268Z,101720.55
2019-01-19T09:47:12.353Z,101717.52
2019-01-19T09:52:21.163Z,101725.47
2019-01-19T09:57:22.443Z,101717.16
2019-01-19T10:02:26.521Z,101719.02
2019-01-19T10:07:30.521Z,101722.72
2019-01-19T10:12:34.615Z,101720.13
2019-01-19T10:17:38.746Z,101713.80
2019-01-19T10:22:42.837Z,101707.61
2019-01-19T10:27:46.899Z,101704.18
2019-01-19T10:32:50.977Z,101701.37
2019-01-19T10:37:56.649Z,101698.61
2019-01-19T10:43:00.935Z,101694.38
2019-01-19T10:48:05.170Z,101693.17
2019-01-19T10:53:09.317Z,101691.97
2019-01-19T10:58:13.784Z,101688.78
2019-01-19T11:03:18.074Z,101686.75
2019-01-19T11:08:24.001Z,101679.00
2019-01-19T11:13:28.459Z,101677.91
2019-01-19T11:18:32.711Z,101669.95
2019-01-19T11:23:41.026Z,101675.95
2019-01-19T11:28:45.199Z,101675.57
2019-01-19T11:33:49.325Z,101664.18
2019-01-19T11:38:53.392Z,101654.58
2019-01-19T11:43:57.454Z,101654.83
2019-01-19T11:49:01.582Z,101649.84
2019-01-19T11:54:06.884Z,101647.11
2019-01-19T11:59:10.963Z,101634.27
2019-01-19T12:04:15.229Z,101634.83
2019-01-19T12:09:19.259Z,101628.72
2019-01-19T12:14:23.357Z,101629.41
2019-01-19T12:19:27.396Z,101626.84
2019-01-19T12:24:31.429Z,101633.36
2019-01-19T12:29:35.534Z,101624.28
2019-01-19T12:34:40.284Z,101619.36
2019-01-19T12:39:44.257Z,101615.57
2019-01-19T12:44:48.624Z,101617.56
2019-01-19T12:49:52.676Z,101608.03
2019-01-19T12:54:56.731Z,101596.48
2019-01-19T13:00:00.807Z,101599.88
2019-01-19T13:05:08.406Z,101599.26
2019-01-19T13:10:19.055Z,101600.19
2019-01-19T13:16:05.715Z,101596.16
2019-01-19T13:22:08.454Z,101601.55
2019-01-19T13:27:34.304Z,101598.80
2019-01-19T13:33:22.289Z,101594.59
2019-01-19T13:39:05.916Z,101594.30
2019-01-19T13:44:41.457Z,101594.38
2019-01-19T13:50:22.635Z,101588.50
2019-01-19T13:55:50.956Z,101591.63
2019-01-19T14:01:48.109Z,101589.67
2019-01-19T14:07:48.228Z,101582.05
2019-01-19T14:13:32.920Z,101582.10
2019-01-19T14:19:04.962Z,101577.98
2019-01-19T14:24:55.943Z,101577.98
2019-01-19T14:30:39.638Z,101575.08
2019-01-19T14:36:27.780Z,101568.17
2019-01-19T14:42:03.663Z,101561.37
2019-01-19T14:47:21.985Z,101569.41
2019-01-19T14:53:01.165Z,101566.06
2019-01-19T14:58:40.658Z,101567.38
2019-01-19T15:04:21.535Z,101567.91
2019-01-19T15:09:57.128Z,101563.83
2019-01-19T15:15:35.915Z,101556.52
2019-01-19T15:21:31.828Z,101553.23
2019-01-19T15:27:31.775Z,101552.20
2019-01-19T15:33:15.385Z,101551.02
2019-01-19T15:39:11.032Z,101553.80
2019-01-19T15:44:46.746Z,101545.00
2019-01-19T15:50:37.150Z,101547.00
2019-01-19T15:56:28.656Z,101544.27
2019-01-19T16:02:18.438Z,101545.63
2019-01-19T16:07:59.350Z,101544.25
2019-01-19T16:13:19.612Z,101545.66
2019-01-19T16:18:55.162Z,101542.84
2019-01-19T16:24:26.091Z,101546.72
2019-01-19T16:29:57.391Z,101540.94
2019-01-19T16:35:52.169Z,101546.84
2019-01-19T16:41:40.497Z,101548.39
2019-01-19T16:47:25.700Z,101538.70
2019-01-19T16:53:03.592Z,101535.60
2019-01-19T16:58:38.118Z,101534.03
2019-01-19T17:04:19.526Z,101533.32
2019-01-19T17:10:19.875Z,101540.45
2019-01-19T17:15:39.300Z,101535.00
2019-01-19T17:21:24.974Z,101532.69
2019-01-19T17:27:03.025Z,101531.97
2019-01-19T17:32:32.870Z,101532.17
2019-01-19T17:38:09.623Z,101531.52
2019-01-19T17:43:40.269Z,101542.22
2019-01-19T17:49:06.981Z,101542.83
2019-01-19T17:54:41.069Z,101535.30
2019-01-19T17:59:58.920Z,101537.59
2019-01-19T18:05:46.861Z,101538.77
2019-01-19T18:11:37.345Z,101542.55
2019-01-19T18:17:34.265Z,101541.42
2019-01-19T18:23:17.886Z,101538.50
2019-01-19T18:29:06.054Z,101536.64
2019-01-19T18:34:45.939Z,101534.34
2019-01-19T18:40:07.394Z,101532.45
2019-01-19T18:45:46.332Z,101540.21
2019-01-19T18:51:35.728Z,101532.20
2019-01-19T18:57:49.607Z,101532.80
2019-01-19T19:03:37.830Z,101529.84
2019-01-19T19:09:38.347Z,101526.95
2019-01-19T19:15:06.300Z,101519.05
2019-01-19T19:21:03.718Z,101516.11
2019-01-19T19:26:32.879Z,101515.50
2019-01-19T19:32:13.610Z,101515.25
2019-01-19T19:38:01.498Z,101514.52
2019-01-19T19:43:46.533Z,101517.08
2019-01-19T19:49:23.319Z,101525.88
2019-01-19T19:54:31.650Z,101524.84
2019-01-19T19:59:39.248Z,101513.55
2019-01-19T20:04:50.141Z,101510.88
2019-01-19T20:09:57.070Z,101505.30
2019-01-19T20:15:07.452Z,101507.39
2019-01-19T20:20:12.590Z,101510.36
2019-01-19T20:25:18.623Z,101513.02
2019-01-19T20:30:24.270Z,101512.50
2019-01-19T20:35:28.798Z,101515.95
2019-01-19T20:40:35.646Z,101518.93
2019-01-19T20:45:42.686Z,101522.02
2019-01-19T20:50:47.168Z,101528.85
2019-01-19T20:55:51.973Z,101520.02
2019-01-19T21:00:56.155Z,101525.80
2019-01-19T21:06:00.730Z,101526.36
2019-01-19T21:11:05.857Z,101524.87
2019-01-19T21:16:09.894Z,101517.98
2019-01-19T21:21:14.254Z,101518.88
2019-01-19T21:26:18.596Z,101513.77
2019-01-19T21:31:22.675Z,101525.25
2019-01-19T21:36:28.199Z,101516.12
2019-01-19T21:41:32.255Z,101503.18
2019-01-19T21:46:36.740Z,101510.38
2019-01-19T21:51:40.908Z,101503.51
2019-01-19T21:56:44.969Z,101502.25
2019-01-19T22:01:49.075Z,101501.66
2019-01-19T22:06:53.333Z,101504.86
2019-01-19T22:11:58.303Z,101504.08
2019-01-19T22:17:02.543Z,101502.70
2019-01-19T22:22:06.578Z,101501.84
2019-01-19T22:27:10.691Z,101499.91
2019-01-19T22:32:14.982Z,101495.28
2019-01-19T22:37:19.081Z,101497.75
2019-01-19T22:42:23.144Z,101492.13
2019-01-19T22:47:27.198Z,101490.28
2019-01-19T22:52:31.288Z,101490.42
2019-01-19T22:57:35.564Z,101485.36
2019-01-19T23:02:41.809Z,101485.47
2019-01-19T23:07:45.938Z,101484.71
2019-01-19T23:12:52.692Z,101484.23
2019-01-19T23:17:57.930Z,101485.75
2019-01-19T23:23:03.220Z,101473.81
2019-01-19T23:28:08.464Z,101476.98
2019-01-19T23:33:12.662Z,101472.94
2019-01-19T23:38:16.716Z,101467.81
2019-01-19T23:43:20.813Z,101460.07
2019-01-19T23:48:24.901Z,101458.30
2019-01-19T23:53:28.967Z,101451.70
2019-01-19T23:58:33.005Z,101454.75
